Cross Plains, Tennessee
Current Conditions -  °F | °C
As of 2:35 AM on Saturday 20 Dec 2014 (Local Time) from KM91 Reporting Station
Clear Clear  
Wind Chill: 23°   Ceiling: Unl
Heat Index: 28°   Visibility: 10mi
Dew Point: 28°   Wind: 5mph
Humidity: 100%   Direction: 20°NNE
Pressure: 30.23"   Gusts: NA
Location:  36.55°N, 86.7°W
Report Text: KM91 200835Z AUTO 02004KT 10SM CLR M02/M02 A3023 RMK
Loading
Personal Weather Stations






























Interactive Weather Map New forecast layout! Learn more

10-Day Weather Forecast

Advertisements
Track Severe Weather on mobile